sensor_id;sensor_type;location;lat;lon;timestamp;temperature;humidity
17619;DHT22;8928;51.678;6.074;2023-08-06T00:01:01;14.70;99.90
17619;DHT22;8928;51.678;6.074;2023-08-06T00:03:48;14.70;99.90
17619;DHT22;8928;51.678;6.074;2023-08-06T00:06:35;14.70;99.90
17619;DHT22;8928;51.678;6.074;2023-08-06T00:09:22;14.80;99.90
17619;DHT22;8928;51.678;6.074;2023-08-06T00:12:11;14.80;99.90
17619;DHT22;8928;51.678;6.074;2023-08-06T00:14:58;14.80;99.90
17619;DHT22;8928;51.678;6.074;2023-08-06T00:17:45;14.80;99.90
17619;DHT22;8928;51.678;6.074;2023-08-06T00:20:32;14.80;99.90
17619;DHT22;8928;51.678;6.074;2023-08-06T00:23:19;14.80;99.90
17619;DHT22;8928;51.678;6.074;2023-08-06T00:26:08;14.80;99.90
17619;DHT22;8928;51.678;6.074;2023-08-06T00:28:56;14.80;99.90
17619;DHT22;8928;51.678;6.074;2023-08-06T00:31:43;14.80;99.90
17619;DHT22;8928;51.678;6.074;2023-08-06T00:34:30;14.80;99.90
17619;DHT22;8928;51.678;6.074;2023-08-06T00:37:17;14.80;99.90
17619;DHT22;8928;51.678;6.074;2023-08-06T00:40:06;14.80;99.90
17619;DHT22;8928;51.678;6.074;2023-08-06T00:42:53;14.80;99.90
17619;DHT22;8928;51.678;6.074;2023-08-06T00:45:41;14.90;99.90
17619;DHT22;8928;51.678;6.074;2023-08-06T00:48:28;14.90;99.90
17619;DHT22;8928;51.678;6.074;2023-08-06T00:51:16;14.80;99.90
17619;DHT22;8928;51.678;6.074;2023-08-06T00:54:03;14.90;99.90
17619;DHT22;8928;51.678;6.074;2023-08-06T00:56:50;14.80;99.90
17619;DHT22;8928;51.678;6.074;2023-08-06T00:59:37;14.90;99.90
17619;DHT22;8928;51.678;6.074;2023-08-06T01:02:26;14.90;99.90
17619;DHT22;8928;51.678;6.074;2023-08-06T01:05:13;14.90;99.90
17619;DHT22;8928;51.678;6.074;2023-08-06T01:08:10;14.90;99.90
17619;DHT22;8928;51.678;6.074;2023-08-06T01:11:07;14.80;99.90
17619;DHT22;8928;51.678;6.074;2023-08-06T01:14:01;14.90;99.90
17619;DHT22;8928;51.678;6.074;2023-08-06T01:16:50;14.90;99.90
17619;DHT22;8928;51.678;6.074;2023-08-06T01:19:38;14.90;99.90
17619;DHT22;8928;51.678;6.074;2023-08-06T01:22:27;14.90;99.90
17619;DHT22;8928;51.678;6.074;2023-08-06T01:25:15;14.90;99.90
17619;DHT22;8928;51.678;6.074;2023-08-06T01:28:11;14.90;99.90
17619;DHT22;8928;51.678;6.074;2023-08-06T01:31:03;14.80;99.90
17619;DHT22;8928;51.678;6.074;2023-08-06T01:33:51;14.80;99.90
17619;DHT22;8928;51.678;6.074;2023-08-06T01:36:40;14.90;99.90
17619;DHT22;8928;51.678;6.074;2023-08-06T01:39:29;14.90;99.90
17619;DHT22;8928;51.678;6.074;2023-08-06T01:42:18;14.90;99.90
17619;DHT22;8928;51.678;6.074;2023-08-06T01:45:05;14.80;99.90
17619;DHT22;8928;51.678;6.074;2023-08-06T01:47:53;14.80;99.90
17619;DHT22;8928;51.678;6.074;2023-08-06T01:50:40;14.80;99.90
17619;DHT22;8928;51.678;6.074;2023-08-06T01:53:27;14.80;99.90
17619;DHT22;8928;51.678;6.074;2023-08-06T01:56:15;14.80;99.90
17619;DHT22;8928;51.678;6.074;2023-08-06T01:59:02;14.80;99.90
17619;DHT22;8928;51.678;6.074;2023-08-06T02:01:49;14.70;99.90
17619;DHT22;8928;51.678;6.074;2023-08-06T02:04:36;14.70;99.90
17619;DHT22;8928;51.678;6.074;2023-08-06T02:07:23;14.70;99.90
17619;DHT22;8928;51.678;6.074;2023-08-06T02:10:10;14.70;99.90
17619;DHT22;8928;51.678;6.074;2023-08-06T02:12:59;14.70;99.90
17619;DHT22;8928;51.678;6.074;2023-08-06T02:15:46;14.70;99.90
17619;DHT22;8928;51.678;6.074;2023-08-06T02:18:34;14.70;99.90
17619;DHT22;8928;51.678;6.074;2023-08-06T02:21:21;14.80;99.90
17619;DHT22;8928;51.678;6.074;2023-08-06T02:24:08;14.80;99.90
17619;DHT22;8928;51.678;6.074;2023-08-06T02:26:55;14.80;99.90
17619;DHT22;8928;51.678;6.074;2023-08-06T02:29:43;14.80;99.90
17619;DHT22;8928;51.678;6.074;2023-08-06T02:32:30;14.80;99.90
17619;DHT22;8928;51.678;6.074;2023-08-06T02:35:22;14.80;99.90
17619;DHT22;8928;51.678;6.074;2023-08-06T02:38:09;14.80;99.90
17619;DHT22;8928;51.678;6.074;2023-08-06T02:40:56;14.80;99.90
17619;DHT22;8928;51.678;6.074;2023-08-06T02:43:43;14.70;99.90
17619;DHT22;8928;51.678;6.074;2023-08-06T02:46:31;14.70;99.90
17619;DHT22;8928;51.678;6.074;2023-08-06T02:49:18;14.70;99.90
17619;DHT22;8928;51.678;6.074;2023-08-06T02:52:06;14.70;99.90
17619;DHT22;8928;51.678;6.074;2023-08-06T02:54:53;14.60;99.90
17619;DHT22;8928;51.678;6.074;2023-08-06T02:57:40;14.60;99.90
17619;DHT22;8928;51.678;6.074;2023-08-06T03:00:27;14.60;99.90
17619;DHT22;8928;51.678;6.074;2023-08-06T03:03:16;14.50;99.90
17619;DHT22;8928;51.678;6.074;2023-08-06T03:06:03;14.50;99.90
17619;DHT22;8928;51.678;6.074;2023-08-06T03:08:50;14.50;99.90
17619;DHT22;8928;51.678;6.074;2023-08-06T03:11:39;14.40;99.90
17619;DHT22;8928;51.678;6.074;2023-08-06T03:14:26;14.40;99.90
17619;DHT22;8928;51.678;6.074;2023-08-06T03:17:13;14.40;99.90
17619;DHT22;8928;51.678;6.074;2023-08-06T03:20:02;14.50;99.90
17619;DHT22;8928;51.678;6.074;2023-08-06T03:22:49;14.50;99.90
17619;DHT22;8928;51.678;6.074;2023-08-06T03:25:36;14.50;99.90
17619;DHT22;8928;51.678;6.074;2023-08-06T03:28:24;14.50;99.90
17619;DHT22;8928;51.678;6.074;2023-08-06T03:31:11;14.50;99.90
17619;DHT22;8928;51.678;6.074;2023-08-06T03:33:58;14.60;99.90
17619;DHT22;8928;51.678;6.074;2023-08-06T03:36:46;14.60;99.90
17619;DHT22;8928;51.678;6.074;2023-08-06T03:39:33;14.60;99.90
17619;DHT22;8928;51.678;6.074;2023-08-06T03:42:20;14.60;99.90
17619;DHT22;8928;51.678;6.074;2023-08-06T03:45:08;14.60;99.90
17619;DHT22;8928;51.678;6.074;2023-08-06T03:47:55;14.60;99.90
17619;DHT22;8928;51.678;6.074;2023-08-06T03:50:42;14.60;99.90
17619;DHT22;8928;51.678;6.074;2023-08-06T03:53:30;14.50;99.90
17619;DHT22;8928;51.678;6.074;2023-08-06T03:56:18;14.50;99.90
17619;DHT22;8928;51.678;6.074;2023-08-06T03:59:05;14.50;99.90
17619;DHT22;8928;51.678;6.074;2023-08-06T04:01:52;14.60;99.90
17619;DHT22;8928;51.678;6.074;2023-08-06T04:04:39;14.50;99.90
17619;DHT22;8928;51.678;6.074;2023-08-06T04:07:26;14.50;99.90
17619;DHT22;8928;51.678;6.074;2023-08-06T04:10:14;14.50;99.90
17619;DHT22;8928;51.678;6.074;2023-08-06T04:13:01;14.50;99.90
17619;DHT22;8928;51.678;6.074;2023-08-06T04:15:48;14.50;99.90
17619;DHT22;8928;51.678;6.074;2023-08-06T04:18:35;14.60;99.90
17619;DHT22;8928;51.678;6.074;2023-08-06T04:21:22;14.60;99.90
17619;DHT22;8928;51.678;6.074;2023-08-06T04:24:09;14.70;99.90
17619;DHT22;8928;51.678;6.074;2023-08-06T04:26:58;14.70;99.90
17619;DHT22;8928;51.678;6.074;2023-08-06T04:29:45;14.70;99.90
17619;DHT22;8928;51.678;6.074;2023-08-06T04:32:32;14.80;99.90
17619;DHT22;8928;51.678;6.074;2023-08-06T04:35:19;14.80;99.90
17619;DHT22;8928;51.678;6.074;2023-08-06T04:38:06;14.90;99.90
17619;DHT22;8928;51.678;6.074;2023-08-06T04:40:53;14.90;99.90
17619;DHT22;8928;51.678;6.074;2023-08-06T04:43:41;15.00;99.90
17619;DHT22;8928;51.678;6.074;2023-08-06T04:46:28;15.10;99.90
17619;DHT22;8928;51.678;6.074;2023-08-06T04:49:15;15.10;99.90
17619;DHT22;8928;51.678;6.074;2023-08-06T04:52:03;15.10;99.90
17619;DHT22;8928;51.678;6.074;2023-08-06T04:54:50;15.20;99.90
17619;DHT22;8928;51.678;6.074;2023-08-06T04:57:37;15.30;99.90
17619;DHT22;8928;51.678;6.074;2023-08-06T05:00:26;15.30;99.90
17619;DHT22;8928;51.678;6.074;2023-08-06T05:03:13;15.30;99.90
17619;DHT22;8928;51.678;6.074;2023-08-06T05:06:00;15.40;99.90
17619;DHT22;8928;51.678;6.074;2023-08-06T05:08:47;15.40;99.90
17619;DHT22;8928;51.678;6.074;2023-08-06T05:11:34;15.50;99.90
17619;DHT22;8928;51.678;6.074;2023-08-06T05:14:21;15.50;99.90
17619;DHT22;8928;51.678;6.074;2023-08-06T05:17:09;15.60;99.90
17619;DHT22;8928;51.678;6.074;2023-08-06T05:19:56;15.70;99.90
17619;DHT22;8928;51.678;6.074;2023-08-06T05:22:43;15.70;99.90
17619;DHT22;8928;51.678;6.074;2023-08-06T05:25:30;15.70;99.90
17619;DHT22;8928;51.678;6.074;2023-08-06T05:28:17;15.80;99.90
17619;DHT22;8928;51.678;6.074;2023-08-06T05:31:04;15.80;99.90
17619;DHT22;8928;51.678;6.074;2023-08-06T05:33:53;15.90;99.90
17619;DHT22;8928;51.678;6.074;2023-08-06T05:36:40;16.00;99.90
17619;DHT22;8928;51.678;6.074;2023-08-06T05:39:27;16.00;99.90
17619;DHT22;8928;51.678;6.074;2023-08-06T05:42:14;16.10;99.90
17619;DHT22;8928;51.678;6.074;2023-08-06T05:45:01;16.10;99.90
17619;DHT22;8928;51.678;6.074;2023-08-06T05:47:48;16.20;99.90
17619;DHT22;8928;51.678;6.074;2023-08-06T05:50:37;16.20;99.90
17619;DHT22;8928;51.678;6.074;2023-08-06T05:53:24;16.30;99.90
17619;DHT22;8928;51.678;6.074;2023-08-06T05:56:11;16.30;99.90
17619;DHT22;8928;51.678;6.074;2023-08-06T05:58:58;16.20;99.90
17619;DHT22;8928;51.678;6.074;2023-08-06T06:01:45;16.10;99.90
17619;DHT22;8928;51.678;6.074;2023-08-06T06:04:32;16.20;99.90
17619;DHT22;8928;51.678;6.074;2023-08-06T06:07:20;16.30;99.90
17619;DHT22;8928;51.678;6.074;2023-08-06T06:10:08;16.20;99.90
17619;DHT22;8928;51.678;6.074;2023-08-06T06:12:55;16.30;99.90
17619;DHT22;8928;51.678;6.074;2023-08-06T06:15:42;16.40;99.90
17619;DHT22;8928;51.678;6.074;2023-08-06T06:18:29;16.40;99.90
17619;DHT22;8928;51.678;6.074;2023-08-06T06:21:16;16.40;99.90
17619;DHT22;8928;51.678;6.074;2023-08-06T06:24:05;16.40;99.90
17619;DHT22;8928;51.678;6.074;2023-08-06T06:26:53;16.40;99.90
17619;DHT22;8928;51.678;6.074;2023-08-06T06:29:40;16.60;99.90
17619;DHT22;8928;51.678;6.074;2023-08-06T06:32:27;16.80;99.90
17619;DHT22;8928;51.678;6.074;2023-08-06T06:35:14;16.90;99.90
17619;DHT22;8928;51.678;6.074;2023-08-06T06:38:01;16.90;99.90
17619;DHT22;8928;51.678;6.074;2023-08-06T06:40:55;16.90;99.90
17619;DHT22;8928;51.678;6.074;2023-08-06T06:43:42;16.90;99.90
17619;DHT22;8928;51.678;6.074;2023-08-06T06:46:29;16.90;99.90
17619;DHT22;8928;51.678;6.074;2023-08-06T06:49:16;17.00;99.90
17619;DHT22;8928;51.678;6.074;2023-08-06T06:52:04;17.00;99.90
17619;DHT22;8928;51.678;6.074;2023-08-06T06:54:51;17.10;99.90
17619;DHT22;8928;51.678;6.074;2023-08-06T06:57:39;17.30;99.90
17619;DHT22;8928;51.678;6.074;2023-08-06T07:00:26;17.30;99.90
17619;DHT22;8928;51.678;6.074;2023-08-06T07:03:13;17.40;99.90
17619;DHT22;8928;51.678;6.074;2023-08-06T07:06:00;17.50;99.90
17619;DHT22;8928;51.678;6.074;2023-08-06T07:08:47;17.60;99.90
17619;DHT22;8928;51.678;6.074;2023-08-06T07:11:34;17.70;99.90
17619;DHT22;8928;51.678;6.074;2023-08-06T07:14:24;17.70;99.90
17619;DHT22;8928;51.678;6.074;2023-08-06T07:17:11;17.80;99.90
17619;DHT22;8928;51.678;6.074;2023-08-06T07:19:58;18.00;99.90
17619;DHT22;8928;51.678;6.074;2023-08-06T07:22:45;18.40;99.90
17619;DHT22;8928;51.678;6.074;2023-08-06T07:25:32;18.60;99.90
17619;DHT22;8928;51.678;6.074;2023-08-06T07:28:19;18.80;99.90
17619;DHT22;8928;51.678;6.074;2023-08-06T07:31:08;18.90;99.90
17619;DHT22;8928;51.678;6.074;2023-08-06T07:33:55;18.90;99.90
17619;DHT22;8928;51.678;6.074;2023-08-06T07:36:43;19.10;99.90
17619;DHT22;8928;51.678;6.074;2023-08-06T07:39:31;19.30;99.90
17619;DHT22;8928;51.678;6.074;2023-08-06T07:42:18;19.30;99.90
17619;DHT22;8928;51.678;6.074;2023-08-06T07:45:08;19.20;99.90
17619;DHT22;8928;51.678;6.074;2023-08-06T07:47:56;18.90;99.90
17619;DHT22;8928;51.678;6.074;2023-08-06T07:50:43;18.90;99.90
17619;DHT22;8928;51.678;6.074;2023-08-06T07:53:36;18.80;99.90
17619;DHT22;8928;51.678;6.074;2023-08-06T07:56:23;18.80;99.90
17619;DHT22;8928;51.678;6.074;2023-08-06T07:59:10;18.60;99.90
17619;DHT22;8928;51.678;6.074;2023-08-06T08:01:57;18.50;99.90
17619;DHT22;8928;51.678;6.074;2023-08-06T08:04:45;18.40;99.90
17619;DHT22;8928;51.678;6.074;2023-08-06T08:07:33;18.40;99.90
17619;DHT22;8928;51.678;6.074;2023-08-06T08:10:20;18.30;99.90
17619;DHT22;8928;51.678;6.074;2023-08-06T08:13:07;18.10;99.90
17619;DHT22;8928;51.678;6.074;2023-08-06T08:15:57;18.10;99.90
17619;DHT22;8928;51.678;6.074;2023-08-06T08:18:44;17.90;99.90
17619;DHT22;8928;51.678;6.074;2023-08-06T08:21:33;17.90;99.90
17619;DHT22;8928;51.678;6.074;2023-08-06T08:24:20;17.90;99.90
17619;DHT22;8928;51.678;6.074;2023-08-06T08:27:09;17.80;99.90
17619;DHT22;8928;51.678;6.074;2023-08-06T08:29:56;17.70;99.90
17619;DHT22;8928;51.678;6.074;2023-08-06T08:32:43;17.70;99.90
17619;DHT22;8928;51.678;6.074;2023-08-06T08:35:30;17.70;99.90
17619;DHT22;8928;51.678;6.074;2023-08-06T08:38:19;17.70;99.90
17619;DHT22;8928;51.678;6.074;2023-08-06T08:41:06;17.70;99.90
17619;DHT22;8928;51.678;6.074;2023-08-06T08:43:53;17.90;99.90
17619;DHT22;8928;51.678;6.074;2023-08-06T08:46:41;17.90;99.90
17619;DHT22;8928;51.678;6.074;2023-08-06T08:49:29;18.00;99.90
17619;DHT22;8928;51.678;6.074;2023-08-06T08:52:17;18.00;99.90
17619;DHT22;8928;51.678;6.074;2023-08-06T08:55:08;18.10;99.90
17619;DHT22;8928;51.678;6.074;2023-08-06T08:57:55;18.40;99.90
17619;DHT22;8928;51.678;6.074;2023-08-06T09:00:43;18.70;99.90
17619;DHT22;8928;51.678;6.074;2023-08-06T09:03:32;18.70;99.90
17619;DHT22;8928;51.678;6.074;2023-08-06T09:06:20;18.80;99.90
17619;DHT22;8928;51.678;6.074;2023-08-06T09:09:09;18.70;99.90
17619;DHT22;8928;51.678;6.074;2023-08-06T09:12:01;18.50;99.90
17619;DHT22;8928;51.678;6.074;2023-08-06T09:14:48;18.00;99.90
17619;DHT22;8928;51.678;6.074;2023-08-06T09:17:36;17.60;99.90
17619;DHT22;8928;51.678;6.074;2023-08-06T09:20:23;17.40;99.90
17619;DHT22;8928;51.678;6.074;2023-08-06T09:23:10;17.20;99.90
17619;DHT22;8928;51.678;6.074;2023-08-06T09:25:58;17.10;99.90
17619;DHT22;8928;51.678;6.074;2023-08-06T09:28:46;16.90;99.90
17619;DHT22;8928;51.678;6.074;2023-08-06T09:31:34;16.70;99.90
17619;DHT22;8928;51.678;6.074;2023-08-06T09:34:26;16.60;99.90
17619;DHT22;8928;51.678;6.074;2023-08-06T09:37:13;16.20;99.90
17619;DHT22;8928;51.678;6.074;2023-08-06T09:40:00;15.80;99.90
17619;DHT22;8928;51.678;6.074;2023-08-06T09:42:47;15.50;99.90
17619;DHT22;8928;51.678;6.074;2023-08-06T09:45:38;15.30;99.90
17619;DHT22;8928;51.678;6.074;2023-08-06T09:48:25;15.10;99.90
17619;DHT22;8928;51.678;6.074;2023-08-06T09:51:13;14.90;99.90
17619;DHT22;8928;51.678;6.074;2023-08-06T09:54:01;14.90;99.90
17619;DHT22;8928;51.678;6.074;2023-08-06T09:56:50;14.80;99.90
17619;DHT22;8928;51.678;6.074;2023-08-06T09:59:39;14.60;99.90
17619;DHT22;8928;51.678;6.074;2023-08-06T10:02:29;14.60;99.90
17619;DHT22;8928;51.678;6.074;2023-08-06T10:05:18;14.50;99.90
17619;DHT22;8928;51.678;6.074;2023-08-06T10:08:05;14.50;99.90
17619;DHT22;8928;51.678;6.074;2023-08-06T10:10:53;14.40;99.90
17619;DHT22;8928;51.678;6.074;2023-08-06T10:13:40;14.40;99.90
17619;DHT22;8928;51.678;6.074;2023-08-06T10:16:28;14.40;99.90
17619;DHT22;8928;51.678;6.074;2023-08-06T10:19:17;14.40;99.90
17619;DHT22;8928;51.678;6.074;2023-08-06T10:22:08;14.40;99.90
17619;DHT22;8928;51.678;6.074;2023-08-06T10:24:57;14.30;99.90
17619;DHT22;8928;51.678;6.074;2023-08-06T10:27:54;14.30;99.90
17619;DHT22;8928;51.678;6.074;2023-08-06T10:30:43;14.30;99.90
17619;DHT22;8928;51.678;6.074;2023-08-06T10:33:41;14.30;99.90
17619;DHT22;8928;51.678;6.074;2023-08-06T10:36:30;14.30;99.90
17619;DHT22;8928;51.678;6.074;2023-08-06T10:39:18;14.30;99.90
17619;DHT22;8928;51.678;6.074;2023-08-06T10:42:05;14.30;99.90
17619;DHT22;8928;51.678;6.074;2023-08-06T10:45:13;14.30;99.90
17619;DHT22;8928;51.678;6.074;2023-08-06T10:48:00;14.30;99.90
17619;DHT22;8928;51.678;6.074;2023-08-06T10:50:48;14.30;99.90
17619;DHT22;8928;51.678;6.074;2023-08-06T10:53:36;14.30;99.90
17619;DHT22;8928;51.678;6.074;2023-08-06T10:56:24;14.30;99.90
17619;DHT22;8928;51.678;6.074;2023-08-06T10:59:15;14.40;99.90
17619;DHT22;8928;51.678;6.074;2023-08-06T11:02:03;14.40;99.90
17619;DHT22;8928;51.678;6.074;2023-08-06T11:04:50;14.40;99.90
17619;DHT22;8928;51.678;6.074;2023-08-06T11:07:38;14.40;99.90
17619;DHT22;8928;51.678;6.074;2023-08-06T11:10:26;14.40;99.90
17619;DHT22;8928;51.678;6.074;2023-08-06T11:13:16;14.50;99.90
17619;DHT22;8928;51.678;6.074;2023-08-06T11:16:04;14.60;99.90
17619;DHT22;8928;51.678;6.074;2023-08-06T11:18:52;14.60;99.90
17619;DHT22;8928;51.678;6.074;2023-08-06T11:21:40;14.70;99.90
17619;DHT22;8928;51.678;6.074;2023-08-06T11:24:29;14.70;99.90
17619;DHT22;8928;51.678;6.074;2023-08-06T11:27:18;14.70;99.90
17619;DHT22;8928;51.678;6.074;2023-08-06T11:30:06;14.70;99.90
17619;DHT22;8928;51.678;6.074;2023-08-06T11:32:53;14.70;99.90
17619;DHT22;8928;51.678;6.074;2023-08-06T11:35:40;14.80;99.90
17619;DHT22;8928;51.678;6.074;2023-08-06T11:38:28;14.80;99.90
17619;DHT22;8928;51.678;6.074;2023-08-06T11:41:15;14.80;99.90
17619;DHT22;8928;51.678;6.074;2023-08-06T11:44:04;14.90;99.90
17619;DHT22;8928;51.678;6.074;2023-08-06T11:46:51;14.90;99.90
17619;DHT22;8928;51.678;6.074;2023-08-06T11:49:40;14.90;99.90
17619;DHT22;8928;51.678;6.074;2023-08-06T11:52:29;14.90;99.90
17619;DHT22;8928;51.678;6.074;2023-08-06T11:55:16;14.80;99.90
17619;DHT22;8928;51.678;6.074;2023-08-06T11:58:04;14.80;99.90
17619;DHT22;8928;51.678;6.074;2023-08-06T12:00:53;14.90;99.90
17619;DHT22;8928;51.678;6.074;2023-08-06T12:03:42;14.90;99.90
17619;DHT22;8928;51.678;6.074;2023-08-06T12:06:29;14.90;99.90
17619;DHT22;8928;51.678;6.074;2023-08-06T12:09:16;14.90;99.90
17619;DHT22;8928;51.678;6.074;2023-08-06T12:12:03;15.00;99.90
17619;DHT22;8928;51.678;6.074;2023-08-06T12:14:51;15.00;99.90
17619;DHT22;8928;51.678;6.074;2023-08-06T12:17:39;14.90;99.90
17619;DHT22;8928;51.678;6.074;2023-08-06T12:20:26;15.00;99.90
17619;DHT22;8928;51.678;6.074;2023-08-06T12:23:14;14.90;99.90
17619;DHT22;8928;51.678;6.074;2023-08-06T12:26:01;14.90;99.90
17619;DHT22;8928;51.678;6.074;2023-08-06T12:28:48;14.80;99.90
17619;DHT22;8928;51.678;6.074;2023-08-06T12:31:36;14.70;99.90
17619;DHT22;8928;51.678;6.074;2023-08-06T12:34:24;14.70;99.90
17619;DHT22;8928;51.678;6.074;2023-08-06T12:37:11;14.70;99.90
17619;DHT22;8928;51.678;6.074;2023-08-06T12:39:58;14.60;99.90
17619;DHT22;8928;51.678;6.074;2023-08-06T12:42:45;14.70;99.90
17619;DHT22;8928;51.678;6.074;2023-08-06T12:45:33;14.60;99.90
17619;DHT22;8928;51.678;6.074;2023-08-06T12:48:20;14.60;99.90
17619;DHT22;8928;51.678;6.074;2023-08-06T12:51:08;14.60;99.90
17619;DHT22;8928;51.678;6.074;2023-08-06T12:53:55;14.60;99.90
17619;DHT22;8928;51.678;6.074;2023-08-06T12:56:43;14.60;99.90
17619;DHT22;8928;51.678;6.074;2023-08-06T12:59:30;14.80;99.90
17619;DHT22;8928;51.678;6.074;2023-08-06T13:02:18;14.80;99.90
17619;DHT22;8928;51.678;6.074;2023-08-06T13:05:06;14.90;99.90
17619;DHT22;8928;51.678;6.074;2023-08-06T13:07:56;14.90;99.90
17619;DHT22;8928;51.678;6.074;2023-08-06T13:10:43;15.00;99.90
17619;DHT22;8928;51.678;6.074;2023-08-06T13:13:30;15.10;99.90
17619;DHT22;8928;51.678;6.074;2023-08-06T13:16:17;15.00;99.90
17619;DHT22;8928;51.678;6.074;2023-08-06T13:19:05;15.10;99.90
17619;DHT22;8928;51.678;6.074;2023-08-06T13:22:01;15.20;99.90
17619;DHT22;8928;51.678;6.074;2023-08-06T13:24:51;15.20;99.90
17619;DHT22;8928;51.678;6.074;2023-08-06T13:27:38;15.30;99.90
17619;DHT22;8928;51.678;6.074;2023-08-06T13:30:25;15.30;99.90
17619;DHT22;8928;51.678;6.074;2023-08-06T13:33:12;15.40;99.90
17619;DHT22;8928;51.678;6.074;2023-08-06T13:35:59;15.40;99.90
17619;DHT22;8928;51.678;6.074;2023-08-06T13:38:46;15.20;99.90
17619;DHT22;8928;51.678;6.074;2023-08-06T13:41:34;15.10;99.90
17619;DHT22;8928;51.678;6.074;2023-08-06T13:44:21;14.90;99.90
17619;DHT22;8928;51.678;6.074;2023-08-06T13:47:08;14.90;99.90
17619;DHT22;8928;51.678;6.074;2023-08-06T13:49:55;14.90;99.90
17619;DHT22;8928;51.678;6.074;2023-08-06T13:52:43;14.90;99.90
17619;DHT22;8928;51.678;6.074;2023-08-06T13:55:30;14.80;99.90
17619;DHT22;8928;51.678;6.074;2023-08-06T13:58:18;14.80;99.90
17619;DHT22;8928;51.678;6.074;2023-08-06T14:01:05;14.80;99.90
17619;DHT22;8928;51.678;6.074;2023-08-06T14:03:52;14.80;99.90
17619;DHT22;8928;51.678;6.074;2023-08-06T14:06:40;14.70;99.90
17619;DHT22;8928;51.678;6.074;2023-08-06T14:09:27;14.70;99.90
17619;DHT22;8928;51.678;6.074;2023-08-06T14:12:14;14.70;99.90
17619;DHT22;8928;51.678;6.074;2023-08-06T14:15:03;14.70;99.90
17619;DHT22;8928;51.678;6.074;2023-08-06T14:17:50;14.60;99.90
17619;DHT22;8928;51.678;6.074;2023-08-06T14:20:38;14.60;99.90
17619;DHT22;8928;51.678;6.074;2023-08-06T14:23:25;14.60;99.90
17619;DHT22;8928;51.678;6.074;2023-08-06T14:26:12;14.50;99.90
17619;DHT22;8928;51.678;6.074;2023-08-06T14:29:01;14.50;99.90
17619;DHT22;8928;51.678;6.074;2023-08-06T14:31:49;14.50;99.90
17619;DHT22;8928;51.678;6.074;2023-08-06T14:34:37;14.50;99.90
17619;DHT22;8928;51.678;6.074;2023-08-06T14:37:24;14.50;99.90
17619;DHT22;8928;51.678;6.074;2023-08-06T14:40:12;14.50;99.90
17619;DHT22;8928;51.678;6.074;2023-08-06T14:42:59;14.50;99.90
17619;DHT22;8928;51.678;6.074;2023-08-06T14:45:46;14.50;99.90
17619;DHT22;8928;51.678;6.074;2023-08-06T14:48:35;14.50;99.90
17619;DHT22;8928;51.678;6.074;2023-08-06T14:51:22;14.50;99.90
17619;DHT22;8928;51.678;6.074;2023-08-06T14:54:09;14.50;99.90
17619;DHT22;8928;51.678;6.074;2023-08-06T14:56:56;14.50;99.90
17619;DHT22;8928;51.678;6.074;2023-08-06T14:59:43;14.50;99.90
17619;DHT22;8928;51.678;6.074;2023-08-06T15:02:30;14.60;99.90
17619;DHT22;8928;51.678;6.074;2023-08-06T15:05:18;14.60;99.90
17619;DHT22;8928;51.678;6.074;2023-08-06T15:08:05;14.60;99.90
17619;DHT22;8928;51.678;6.074;2023-08-06T15:10:53;14.60;99.90
17619;DHT22;8928;51.678;6.074;2023-08-06T15:13:40;14.70;99.90
17619;DHT22;8928;51.678;6.074;2023-08-06T15:16:27;14.70;99.90
17619;DHT22;8928;51.678;6.074;2023-08-06T15:19:14;14.70;99.90
17619;DHT22;8928;51.678;6.074;2023-08-06T15:22:03;14.80;99.90
17619;DHT22;8928;51.678;6.074;2023-08-06T15:24:50;14.80;99.90
17619;DHT22;8928;51.678;6.074;2023-08-06T15:27:37;14.80;99.90
17619;DHT22;8928;51.678;6.074;2023-08-06T15:30:25;14.80;99.90
17619;DHT22;8928;51.678;6.074;2023-08-06T15:33:12;14.80;99.90
17619;DHT22;8928;51.678;6.074;2023-08-06T15:36:00;14.80;99.90
17619;DHT22;8928;51.678;6.074;2023-08-06T15:38:48;14.80;99.90
17619;DHT22;8928;51.678;6.074;2023-08-06T15:41:35;14.90;99.90
17619;DHT22;8928;51.678;6.074;2023-08-06T15:44:22;15.00;99.90
17619;DHT22;8928;51.678;6.074;2023-08-06T15:47:09;15.00;99.90
17619;DHT22;8928;51.678;6.074;2023-08-06T15:49:57;15.00;99.90
17619;DHT22;8928;51.678;6.074;2023-08-06T15:52:44;15.00;99.90
17619;DHT22;8928;51.678;6.074;2023-08-06T15:55:32;15.00;99.90
17619;DHT22;8928;51.678;6.074;2023-08-06T15:58:23;15.00;99.90
17619;DHT22;8928;51.678;6.074;2023-08-06T16:01:10;15.10;99.90
17619;DHT22;8928;51.678;6.074;2023-08-06T16:03:57;15.10;99.90
17619;DHT22;8928;51.678;6.074;2023-08-06T16:06:44;15.10;99.90
17619;DHT22;8928;51.678;6.074;2023-08-06T16:09:31;15.10;99.90
17619;DHT22;8928;51.678;6.074;2023-08-06T16:12:20;15.10;99.90
17619;DHT22;8928;51.678;6.074;2023-08-06T16:15:08;15.10;99.90
17619;DHT22;8928;51.678;6.074;2023-08-06T16:17:56;15.10;99.90
17619;DHT22;8928;51.678;6.074;2023-08-06T16:20:43;15.00;99.90
17619;DHT22;8928;51.678;6.074;2023-08-06T16:23:30;15.10;99.90
17619;DHT22;8928;51.678;6.074;2023-08-06T16:26:17;15.10;99.90
17619;DHT22;8928;51.678;6.074;2023-08-06T16:29:05;15.10;99.90
17619;DHT22;8928;51.678;6.074;2023-08-06T16:31:53;15.20;99.90
17619;DHT22;8928;51.678;6.074;2023-08-06T16:34:40;15.10;99.90
17619;DHT22;8928;51.678;6.074;2023-08-06T16:37:27;15.10;99.90
17619;DHT22;8928;51.678;6.074;2023-08-06T16:40:14;15.00;99.90
17619;DHT22;8928;51.678;6.074;2023-08-06T16:43:02;14.90;99.90
17619;DHT22;8928;51.678;6.074;2023-08-06T16:45:51;14.90;99.90
17619;DHT22;8928;51.678;6.074;2023-08-06T16:48:39;14.80;99.90
17619;DHT22;8928;51.678;6.074;2023-08-06T16:51:27;14.80;99.90
17619;DHT22;8928;51.678;6.074;2023-08-06T16:54:14;14.70;99.90
17619;DHT22;8928;51.678;6.074;2023-08-06T16:57:02;14.70;99.90
17619;DHT22;8928;51.678;6.074;2023-08-06T16:59:49;14.70;99.90
17619;DHT22;8928;51.678;6.074;2023-08-06T17:02:37;14.60;99.90
17619;DHT22;8928;51.678;6.074;2023-08-06T17:05:24;14.60;99.90
17619;DHT22;8928;51.678;6.074;2023-08-06T17:08:11;14.60;99.90
17619;DHT22;8928;51.678;6.074;2023-08-06T17:10:58;14.60;99.90
17619;DHT22;8928;51.678;6.074;2023-08-06T17:13:47;14.60;99.90
17619;DHT22;8928;51.678;6.074;2023-08-06T17:16:34;14.50;99.90
17619;DHT22;8928;51.678;6.074;2023-08-06T17:19:22;14.50;99.90
17619;DHT22;8928;51.678;6.074;2023-08-06T17:22:09;14.50;99.90
17619;DHT22;8928;51.678;6.074;2023-08-06T17:24:57;14.50;99.90
17619;DHT22;8928;51.678;6.074;2023-08-06T17:27:44;14.50;99.90
17619;DHT22;8928;51.678;6.074;2023-08-06T17:30:31;14.40;99.90
17619;DHT22;8928;51.678;6.074;2023-08-06T17:33:18;14.40;99.90
17619;DHT22;8928;51.678;6.074;2023-08-06T17:36:08;14.40;99.90
17619;DHT22;8928;51.678;6.074;2023-08-06T17:39:02;14.40;99.90
17619;DHT22;8928;51.678;6.074;2023-08-06T17:41:49;14.30;99.90
17619;DHT22;8928;51.678;6.074;2023-08-06T17:44:37;14.30;99.90
17619;DHT22;8928;51.678;6.074;2023-08-06T17:47:25;14.30;99.90
17619;DHT22;8928;51.678;6.074;2023-08-06T17:50:12;14.20;99.90
17619;DHT22;8928;51.678;6.074;2023-08-06T17:53:00;14.20;99.90
17619;DHT22;8928;51.678;6.074;2023-08-06T17:55:47;14.10;99.90